Benton, TN

2:21 AM EST on December 20, 2014 (GMT -0500)
Lovell | Change Station
CLOSE
Current Station
Airport
Location: Chattanooga,
Elevation: 689 ft
Nearby Weather Stations

Elev 689 ft 35.04 °N, 85.20 °W | Updated 28 minutes ago

Overcast
Overcast
42 °F
Feels Like 39 °F
N
5
Wind Variable Wind from NNW

Today
High -- | Low -- °F
--% Chance of Precip.
Yesterday
High -- | Low -- °F
Precip. -- in
7:42 AM 5:29 PM
Waning Crescent, 4% visible
Pressure 30.18 in
Visibility 10.0 miles
Clouds Mostly Cloudy 6000 ft
Overcast 7500 ft
Windchill 39 °F
Dew Point 31 °F
Humidity 65%
Rainfall 0.00 in
Snow Depth Not available.
UV 0 out of 12
Pollen .10 out of 12
Air Quality Not available.
Flu Activity Not available.
METAR KCHA 200653Z AUTO 34004KT 10SM BKN060 OVC075 06/M01 A3017 RMK AO2 SLP219 T00561006

More Conditions Fewer Conditions

Pressure 30.18 in
Visibility 10.0 miles
Clouds Mostly Cloudy 6000 ft
Overcast 7500 ft
Windchill 39 °F
Dew Point 31 °F
Humidity 65%
Rainfall 0.00 in
Snow Depth Not available.
UV 0 out of 12
Pollen .10 out of 12
Air Quality Not available.
Flu Activity Not available.
METAR KCHA 200653Z AUTO 34004KT 10SM BKN060 OVC075 06/M01 A3017 RMK AO2 SLP219 T00561006

More Conditions Fewer Conditions

10-Day Weather Forecast

Almanac

Astronomy

Dec. 20, 2014 Rise Set
Actual Time
Civil Twilight
Nautical Twilight
Astronomical Twilight
Moon
Length of Visible Light
Length of Day
Tomorrow will be .
, % of the Moon is Illuminated

Today's Extremes

State Highs State Lows

Community

WunderPhotos

Upload Photos

1,779,146 photos uploaded!

WunderBlogs® & News

Nearby

Air Quality

  Air Quality AQ Index Pollutant
Not available.

Snow Depth

Station Depth Elevation

Earthquake Activity

City Distance Mag. Time & Date
Minimum magnitude displayed is 2.5.

Coastal Water Temperatures

Place Temperature

Nearby Weather Stations